createdAt,value
2019-03-16T07:36:05.363Z,14.07
2019-03-16T07:39:08.739Z,11.60
2019-03-16T07:42:12.080Z,19.47
2019-03-16T07:45:15.485Z,16.37
2019-03-16T07:48:18.888Z,17.67
2019-03-16T07:51:25.672Z,15.57
2019-03-16T07:54:31.194Z,16.10
2019-03-16T07:57:40.115Z,9.37
2019-03-16T08:00:39.273Z,16.43
2019-03-16T08:03:42.680Z,17.20
2019-03-16T08:06:46.211Z,14.50
2019-03-16T08:09:49.693Z,16.10
2019-03-16T08:12:53.077Z,13.77
2019-03-16T08:15:56.383Z,15.00
2019-03-16T08:18:59.741Z,14.37
2019-03-16T08:22:03.058Z,14.37
2019-03-16T08:25:07.437Z,10.43
2019-03-16T08:28:10.762Z,11.80
2019-03-16T08:31:15.487Z,14.80
2019-03-16T08:34:18.887Z,11.10
2019-03-16T08:37:22.245Z,15.40
2019-03-16T08:40:25.650Z,16.43
2019-03-16T08:43:31.930Z,14.53
2019-03-16T08:46:35.256Z,10.63
2019-03-16T08:49:38.590Z,19.03
2019-03-16T08:52:41.972Z,10.87
2019-03-16T08:55:45.344Z,15.27
2019-03-16T08:58:48.642Z,14.50
2019-03-16T09:01:51.986Z,15.33
2019-03-16T09:04:55.330Z,11.07
2019-03-16T09:07:58.658Z,14.03
2019-03-16T09:11:02.028Z,11.33
2019-03-16T09:14:05.360Z,14.40
2019-03-16T09:17:09.367Z,14.23
2019-03-16T09:20:12.960Z,18.23
2019-03-16T09:23:19.127Z,8.20
2019-03-16T09:26:22.442Z,16.10
2019-03-16T09:29:28.752Z,19.23
2019-03-16T09:32:32.076Z,11.50
2019-03-16T09:35:35.527Z,13.37
2019-03-16T09:38:38.894Z,16.83
2019-03-16T09:41:43.954Z,16.47
2019-03-16T09:44:47.335Z,15.17
2019-03-16T09:47:50.655Z,11.80
2019-03-16T09:50:53.982Z,14.90
2019-03-16T09:53:57.347Z,14.17
2019-03-16T09:57:01.843Z,12.57
2019-03-16T10:00:10.902Z,11.13
2019-03-16T10:03:14.247Z,11.90
2019-03-16T10:06:17.585Z,12.60
2019-03-16T10:09:20.929Z,7.97
2019-03-16T10:12:24.299Z,10.70
2019-03-16T10:15:27.672Z,9.30
2019-03-16T10:18:31.013Z,15.63
2019-03-16T10:21:34.393Z,13.23
2019-03-16T10:24:37.726Z,14.53
2019-03-16T10:27:42.688Z,15.13
2019-03-16T10:30:49.230Z,9.67
2019-03-16T10:33:54.167Z,8.33
2019-03-16T10:37:04.509Z,9.53
2019-03-16T10:40:18.119Z,10.77
2019-03-16T10:43:31.818Z,11.30
2019-03-16T10:46:35.126Z,11.87
2019-03-16T10:49:38.447Z,9.07
2019-03-16T10:52:41.853Z,12.93
2019-03-16T10:55:45.415Z,10.30
2019-03-16T10:58:56.455Z,13.07
2019-03-16T11:01:53.793Z,9.23
2019-03-16T11:04:57.116Z,11.33
2019-03-16T11:08:00.542Z,12.47
2019-03-16T11:11:03.926Z,8.80
2019-03-16T11:14:07.324Z,8.43
2019-03-16T11:17:12.288Z,8.77
2019-03-16T11:20:18.985Z,9.33
2019-03-16T11:23:22.306Z,8.03
2019-03-16T11:26:25.638Z,10.60
2019-03-16T11:29:31.600Z,8.23
2019-03-16T11:32:35.987Z,11.97
2019-03-16T11:35:39.311Z,10.07
2019-03-16T11:38:42.684Z,10.47
2019-03-16T11:41:46.016Z,10.53
2019-03-16T11:44:52.581Z,9.20
2019-03-16T11:47:56.136Z,9.90
2019-03-16T11:51:00.386Z,6.43
2019-03-16T11:54:03.865Z,5.13
2019-03-16T11:57:07.204Z,7.97
2019-03-16T12:00:15.053Z,2.70
2019-03-16T12:03:18.393Z,4.43
2019-03-16T12:06:21.776Z,4.90
2019-03-16T12:09:25.180Z,3.73
2019-03-16T12:12:28.576Z,4.73
2019-03-16T12:15:31.893Z,3.17
2019-03-16T12:18:41.148Z,4.00
2019-03-16T12:21:44.515Z,3.03
2019-03-16T12:24:47.855Z,3.93
2019-03-16T12:27:51.191Z,3.40
2019-03-16T12:30:54.521Z,4.40
2019-03-16T12:33:57.843Z,4.10
2019-03-16T12:37:01.170Z,7.33
2019-03-16T12:40:07.799Z,4.57
2019-03-16T12:43:11.162Z,2.17
2019-03-16T12:46:14.491Z,4.87
2019-03-16T12:49:17.873Z,6.03
2019-03-16T12:52:21.192Z,4.43
2019-03-16T12:55:24.568Z,4.63
2019-03-16T12:58:28.033Z,6.27
2019-03-16T13:01:31.297Z,3.77
2019-03-16T13:04:34.708Z,5.20
2019-03-16T13:07:41.104Z,2.70
2019-03-16T13:10:44.659Z,4.30
2019-03-16T13:13:47.977Z,5.17
2019-03-16T13:16:51.475Z,5.20
2019-03-16T13:19:54.847Z,3.50
2019-03-16T13:22:58.154Z,5.30
2019-03-16T13:26:01.478Z,6.27
2019-03-16T13:29:04.812Z,10.03
2019-03-16T13:32:08.120Z,4.30
2019-03-16T13:35:11.527Z,4.27
2019-03-16T13:38:14.907Z,3.50
2019-03-16T13:41:19.776Z,7.37
2019-03-16T13:44:23.178Z,6.30
2019-03-16T13:47:28.246Z,6.10
2019-03-16T13:50:31.752Z,4.10
2019-03-16T13:53:35.472Z,6.13
2019-03-16T13:56:38.986Z,6.57
2019-03-16T13:59:42.310Z,3.60
2019-03-16T14:02:45.699Z,3.90
2019-03-16T14:05:50.366Z,2.40
2019-03-16T14:08:53.927Z,2.63
2019-03-16T14:11:57.398Z,3.30
2019-03-16T14:15:00.728Z,2.77
2019-03-16T14:18:04.552Z,2.17
2019-03-16T14:21:10.755Z,2.43
2019-03-16T14:24:14.103Z,3.77
2019-03-16T14:27:17.406Z,4.77
2019-03-16T14:30:39.387Z,3.80
2019-03-16T14:33:26.923Z,5.30
2019-03-16T14:36:30.401Z,2.87
2019-03-16T14:39:33.734Z,2.67
2019-03-16T14:42:37.407Z,4.53
2019-03-16T14:45:43.775Z,3.07
2019-03-16T14:48:47.235Z,4.97
2019-03-16T14:51:50.581Z,6.33
2019-03-16T14:54:58.750Z,3.83
2019-03-16T14:58:04.943Z,3.73
2019-03-16T15:01:08.383Z,3.20
2019-03-16T15:04:11.733Z,4.53
2019-03-16T15:07:15.041Z,3.03
2019-03-16T15:10:18.535Z,2.77
2019-03-16T15:13:21.977Z,4.27
2019-03-16T15:16:25.442Z,3.03
2019-03-16T15:19:28.838Z,3.60
2019-03-16T15:22:34.264Z,2.80
2019-03-16T15:25:37.738Z,3.40
2019-03-16T15:28:41.111Z,2.70
2019-03-16T15:31:44.614Z,4.10
2019-03-16T15:34:47.956Z,2.47
2019-03-16T15:37:51.646Z,4.13
2019-03-16T15:40:54.972Z,2.47
2019-03-16T15:43:59.873Z,3.03
2019-03-16T15:47:03.207Z,3.43
2019-03-16T15:50:08.440Z,3.03
2019-03-16T15:53:11.789Z,3.57
2019-03-16T15:56:15.270Z,3.03
2019-03-16T15:59:18.806Z,4.27
2019-03-16T16:02:22.218Z,3.90
2019-03-16T16:05:25.539Z,8.80
2019-03-16T16:08:29.058Z,5.57
2019-03-16T16:11:33.270Z,4.00
2019-03-16T16:14:36.817Z,9.50
2019-03-16T16:17:40.490Z,4.40
2019-03-16T16:20:46.496Z,2.90
2019-03-16T16:23:50.100Z,2.90
2019-03-16T16:26:56.295Z,3.67
2019-03-16T16:29:59.784Z,3.10
2019-03-16T16:33:03.093Z,3.00
2019-03-16T16:36:08.639Z,3.07
2019-03-16T16:39:14.280Z,3.50
2019-03-16T16:42:16.624Z,3.23
2019-03-16T16:45:21.730Z,3.33
2019-03-16T16:48:25.443Z,3.50
2019-03-16T16:51:28.851Z,4.83
2019-03-16T16:54:33.830Z,3.70
2019-03-16T16:57:37.151Z,4.20
2019-03-16T17:00:42.374Z,4.63
2019-03-16T17:03:46.005Z,4.43
2019-03-16T17:06:49.579Z,4.73
2019-03-16T17:09:55.255Z,5.15
2019-03-16T17:13:00.366Z,5.33
2019-03-16T17:16:03.759Z,4.77
2019-03-16T17:19:07.103Z,11.30
2019-03-16T17:22:10.515Z,7.03
2019-03-16T17:25:14.890Z,7.03
2019-03-16T17:28:18.233Z,5.90
2019-03-16T17:31:21.833Z,6.67
2019-03-16T17:34:26.780Z,6.70
2019-03-16T17:37:30.112Z,7.63
2019-03-16T17:40:33.472Z,7.17
2019-03-16T17:43:39.942Z,7.73
2019-03-16T17:46:43.596Z,7.87
2019-03-16T17:49:47.994Z,7.80
2019-03-16T17:52:54.175Z,9.33
2019-03-16T17:55:57.620Z,9.57
2019-03-16T17:59:01.019Z,10.30
2019-03-16T18:02:05.989Z,10.23
2019-03-16T18:05:11.156Z,10.53
2019-03-16T18:08:14.578Z,11.27
2019-03-16T18:11:17.983Z,11.87
2019-03-16T18:14:21.318Z,12.67
2019-03-16T18:17:27.874Z,15.73
2019-03-16T18:20:31.306Z,17.70
2019-03-16T18:23:34.872Z,14.73
2019-03-16T18:26:38.271Z,17.80
2019-03-16T18:29:43.265Z,24.93
2019-03-16T18:32:47.788Z,16.90
2019-03-16T18:35:51.282Z,17.90
2019-03-16T18:38:54.706Z,18.03
2019-03-16T18:41:58.190Z,18.93
2019-03-16T18:45:01.545Z,17.50
2019-03-16T18:48:06.502Z,19.37
2019-03-16T18:51:10.024Z,16.47
2019-03-16T18:54:13.374Z,16.80
2019-03-16T18:57:16.749Z,16.73
2019-03-16T19:00:20.172Z,18.23
2019-03-16T19:03:23.515Z,22.03
2019-03-16T19:06:27.036Z,18.03
2019-03-16T19:09:30.554Z,17.43
2019-03-16T19:12:34.269Z,17.40
2019-03-16T19:15:37.696Z,20.33
2019-03-16T19:18:41.132Z,21.57
2019-03-16T19:21:44.506Z,19.27
2019-03-16T19:24:51.189Z,18.33
2019-03-16T19:27:54.694Z,17.47
2019-03-16T19:30:58.180Z,16.63
2019-03-16T19:34:01.644Z,17.67
2019-03-16T19:37:09.807Z,16.80
2019-03-16T19:40:22.679Z,15.97
2019-03-16T19:43:26.062Z,15.90
2019-03-16T19:46:29.407Z,15.67
2019-03-16T19:49:32.807Z,16.20
2019-03-16T19:52:36.267Z,15.63
2019-03-16T19:55:39.917Z,15.97
2019-03-16T19:58:44.355Z,13.73
2019-03-16T20:01:49.660Z,13.23
2019-03-16T20:04:53.098Z,13.27
2019-03-16T20:07:59.867Z,14.63
2019-03-16T20:11:06.770Z,13.60
2019-03-16T20:14:09.912Z,11.37
2019-03-16T20:17:16.585Z,12.60
2019-03-16T20:21:15.703Z,12.30
2019-03-16T20:31:50.903Z,11.63
2019-03-16T20:35:07.545Z,10.73
2019-03-16T20:38:19.940Z,12.97
2019-03-16T20:42:04.250Z,13.43
2019-03-16T20:45:29.143Z,10.50
2019-03-16T20:52:24.799Z,13.00
2019-03-16T20:55:34.425Z,11.47
2019-03-16T20:58:50.541Z,11.00
2019-03-16T21:01:55.515Z,12.70
2019-03-16T21:05:55.062Z,11.77
2019-03-16T21:08:26.841Z,9.37
2019-03-16T21:11:53.464Z,10.47
2019-03-16T21:15:18.711Z,8.60
2019-03-16T21:18:34.359Z,8.07
2019-03-16T21:36:55.986Z,6.13
2019-03-16T21:40:28.061Z,4.93
2019-03-16T21:55:25.327Z,5.33
2019-03-16T22:02:25.525Z,4.73
2019-03-16T22:05:28.883Z,3.73
2019-03-16T22:08:32.535Z,7.53
2019-03-16T22:11:37.869Z,6.53
2019-03-16T22:14:41.279Z,4.00
2019-03-16T22:17:44.676Z,7.23
2019-03-16T22:20:48.173Z,4.53
2019-03-16T22:23:54.405Z,4.77
2019-03-16T22:26:57.780Z,3.63
2019-03-16T22:30:01.150Z,3.73
2019-03-16T22:33:04.529Z,3.37
2019-03-16T22:36:07.992Z,3.60
2019-03-16T22:39:11.373Z,4.17
2019-03-16T22:42:17.174Z,4.63
2019-03-16T22:45:20.579Z,3.63
2019-03-16T22:48:24.856Z,3.70
2019-03-16T22:51:29.710Z,3.93
2019-03-16T22:54:33.071Z,2.90
2019-03-16T22:57:36.412Z,2.87
2019-03-16T23:00:47.220Z,4.83
2019-03-16T23:03:50.530Z,3.27
2019-03-16T23:06:53.858Z,7.30
2019-03-16T23:09:57.266Z,8.73
2019-03-16T23:13:00.686Z,13.10
2019-03-16T23:16:04.138Z,3.57
2019-03-16T23:19:07.636Z,4.87
2019-03-16T23:22:11.080Z,5.50
2019-03-16T23:25:15.754Z,5.20
2019-03-16T23:28:19.088Z,4.23
2019-03-16T23:31:22.486Z,4.07
2019-03-16T23:34:25.801Z,4.10
2019-03-16T23:37:29.509Z,3.77
2019-03-16T23:40:32.858Z,4.67
2019-03-16T23:43:36.348Z,4.17
2019-03-16T23:46:39.664Z,4.47
2019-03-16T23:49:43.016Z,7.83
2019-03-16T23:52:46.399Z,6.00
2019-03-16T23:55:49.763Z,6.13
2019-03-16T23:58:53.357Z,4.30
